Weather at Agios Dimitrios Power Plant Helipad

Public forecast

Using degrees Celsius for public forecast. Weather courtesy of forecast.io.

Closest aviation weather report (METAR) to Agios Dimitrios Power Plant Helipad

Closest report is Kozani National Airport Filippos, 7.4 nm (13.7 km) SSW.

2024/05/28 16:50 (retrieved 12 minutes ago)

LGKZ 281650Z AUTO 03008KT 320V040 //// // ////// 18/07 Q1015 RE//

Closest aviation forecast (TAF) to Agios Dimitrios Power Plant Helipad

Closest forecast is Thessaloniki Macedonia International Airport, 48.2 nm (89.3 km) E.

2024/05/28 12:13 (retrieved 5 hours ago)

TAF LGTS 281100Z 2812/2912 17013KT 9999 FEW025 PROB30 TEMPO 2814/2820 5000 TSRA FEW015CB BKN025 BECMG 2820/2822 VRB03KT